Lampang, Thailand

9:07 PM ICT on September 27, 2016 (GMT +0700)
Chiang Mai International | | Change Station

Elev 1030 ft 18.77 °N, 98.97 °E | Updated 7 minutes ago

Scattered Clouds
Scattered Clouds
82 °F
Feels Like 88 °F
N
5
Wind Variable Wind from SSW

Today
High -- | Low -- °F
--% Chance of Precip.
Yesterday
High -- | Low -- °F
Precip. -- in
Pressure 29.83 in
Visibility 6.2 miles
Clouds Scattered Clouds 3500 ft
Heat Index 88 °F
Dew Point 73 °F
Humidity 74%
Rainfall 0.00 in
Snow Depth Not available.
6:11 AM 6:13 PM
Waning Crescent, 11% visible
METAR VTCC 271400Z 20004KT 9999 SCT035 28/23 Q1010 A2983 NOSIG
Pressure 29.83 in
Visibility 6.2 miles
Clouds Scattered Clouds 3500 ft
Heat Index 88 °F
Dew Point 73 °F
Humidity 74%
Rainfall 0.00 in
Snow Depth Not available.
6:11 AM 6:13 PM
Waning Crescent, 11% visible
METAR VTCC 271400Z 20004KT 9999 SCT035 28/23 Q1010 A2983 NOSIG

10-Day Weather Forecast

No radar image for this location.
×

Almanac

Astronomy

Sep. 27, 2016 Rise Set
Actual Time
Civil Twilight
Nautical Twilight
Astronomical Twilight
Moon
Length of Visible Light
Length of Day
Tomorrow will be .
, % of the Moon is Illuminated

Today's Extremes

Country Highs Country Lows

Community

WunderPhotos

Upload Photos

1,942,082 photos uploaded!

WunderBlog® & News

Nearby

Air Quality

  Air Quality AQ Index Pollutant
Not available.

Snow Depth

Station Depth Elevation

Earthquake Activity

City Distance Mag. Time & Date
Minimum magnitude displayed is 2.5.

Coastal Water Temperatures

Place Temperature

Stations

Nearby Weather Stations

Station Location Temp. Windchill Dew Point Humidity Wind Precip. Elev Updated Type